createdAt,value
2018-03-02T00:00:08.114Z,69.08
2018-03-02T00:02:39.225Z,69.55
2018-03-02T00:05:11.233Z,68.82
2018-03-02T00:07:43.418Z,68.96
2018-03-02T00:10:15.247Z,68.25
2018-03-02T00:12:46.733Z,69.09
2018-03-02T00:15:28.352Z,69.56
2018-03-02T00:18:01.211Z,69.41
2018-03-02T00:20:32.680Z,69.49
2018-03-02T00:23:04.608Z,69.03
2018-03-02T00:25:38.989Z,69.93
2018-03-02T00:28:10.684Z,69.02
2018-03-02T00:30:42.709Z,68.58
2018-03-02T00:33:14.545Z,70.30
2018-03-02T00:35:46.250Z,69.73
2018-03-02T00:38:18.045Z,68.62
2018-03-02T00:40:49.725Z,71.27
2018-03-02T00:43:21.889Z,69.29
2018-03-02T00:45:53.457Z,69.48
2018-03-02T00:48:25.369Z,69.22
2018-03-02T00:50:57.719Z,69.03
2018-03-02T00:53:29.805Z,69.40
2018-03-02T00:56:01.895Z,69.64
2018-03-02T00:58:34.108Z,71.46
2018-03-02T01:01:05.724Z,71.84
2018-03-02T01:03:37.287Z,71.13
2018-03-02T01:06:09.168Z,71.46
2018-03-02T01:08:40.641Z,70.01
2018-03-02T01:11:12.569Z,68.51
2018-03-02T01:13:44.088Z,72.66
2018-03-02T01:16:16.209Z,70.70
2018-03-02T01:18:48.093Z,69.83
2018-03-02T01:21:20.297Z,69.33
2018-03-02T01:23:51.863Z,70.39
2018-03-02T01:26:23.509Z,69.74
2018-03-02T01:28:55.414Z,69.40
2018-03-02T01:31:27.284Z,69.05
2018-03-02T01:34:00.278Z,69.19
2018-03-02T01:36:31.928Z,68.20
2018-03-02T01:39:05.855Z,71.19
2018-03-02T01:41:38.179Z,70.09
2018-03-02T01:44:10.136Z,69.04
2018-03-02T01:46:42.118Z,70.19
2018-03-02T01:49:14.269Z,68.55
2018-03-02T01:51:51.413Z,71.51
2018-03-02T01:54:22.900Z,69.49
2018-03-02T01:56:54.772Z,70.25
2018-03-02T01:59:26.892Z,71.01
2018-03-02T02:01:59.938Z,69.24
2018-03-02T02:04:31.560Z,69.33
2018-03-02T02:07:03.478Z,70.77
2018-03-02T02:09:35.637Z,71.70
2018-03-02T02:12:07.338Z,70.56
2018-03-02T02:14:38.845Z,70.88
2018-03-02T02:17:10.427Z,69.88
2018-03-02T02:19:42.729Z,69.88
2018-03-02T02:22:14.527Z,69.82
2018-03-02T02:24:46.576Z,69.98
2018-03-02T02:27:18.580Z,70.70
2018-03-02T02:29:50.316Z,70.16
2018-03-02T02:32:22.600Z,71.51
2018-03-02T02:34:54.567Z,70.51
2018-03-02T02:37:28.776Z,71.57
2018-03-02T02:40:02.000Z,73.74
2018-03-02T02:42:33.940Z,71.85
2018-03-02T02:45:05.745Z,71.62
2018-03-02T02:47:37.329Z,73.97
2018-03-02T02:50:09.271Z,70.84
2018-03-02T02:52:40.820Z,71.43
2018-03-02T02:55:13.018Z,73.26
2018-03-02T02:57:44.638Z,70.85
2018-03-02T03:00:16.328Z,71.19
2018-03-02T03:02:47.933Z,71.55
2018-03-02T03:05:19.075Z,71.01
2018-03-02T03:07:50.872Z,71.21
2018-03-02T03:10:21.944Z,71.79
2018-03-02T03:12:53.924Z,71.27
2018-03-02T03:15:25.753Z,71.49
2018-03-02T03:17:57.357Z,71.38
2018-03-02T03:20:29.017Z,74.62
2018-03-02T03:23:02.146Z,73.16
2018-03-02T03:25:33.245Z,72.28
2018-03-02T03:28:04.958Z,75.56
2018-03-02T03:30:37.023Z,73.90
2018-03-02T03:33:08.512Z,74.99
2018-03-02T03:35:40.159Z,74.42
2018-03-02T03:38:11.573Z,73.77
2018-03-02T03:40:46.900Z,74.67
2018-03-02T03:46:04.912Z,73.09
2018-03-02T03:48:36.637Z,74.53
2018-03-02T03:51:08.471Z,75.47
2018-03-02T03:53:40.309Z,76.66
2018-03-02T03:56:12.281Z,74.62
2018-03-02T03:58:43.865Z,74.97
2018-03-02T04:01:15.840Z,73.96
2018-03-02T04:03:47.656Z,74.72
2018-03-02T04:06:19.529Z,74.71
2018-03-02T04:08:55.770Z,73.88
2018-03-02T04:11:27.569Z,73.03
2018-03-02T04:14:00.231Z,73.15
2018-03-02T04:16:31.848Z,71.78
2018-03-02T04:19:04.821Z,73.31
2018-03-02T04:21:36.860Z,74.64
2018-03-02T04:24:08.464Z,72.37
2018-03-02T04:26:40.200Z,73.87
2018-03-02T04:29:12.368Z,75.56
2018-03-02T04:31:43.813Z,73.93
2018-03-02T04:34:15.673Z,73.01
2018-03-02T04:36:47.328Z,72.44
2018-03-02T04:39:19.148Z,72.43
2018-03-02T04:41:50.870Z,70.86
2018-03-02T04:44:22.688Z,71.01
2018-03-02T04:46:54.757Z,71.98
2018-03-02T04:49:26.538Z,73.95
2018-03-02T04:51:58.061Z,75.22
2018-03-02T04:54:30.194Z,73.76
2018-03-02T04:57:03.268Z,76.24
2018-03-02T04:59:35.212Z,74.41
2018-03-02T05:02:06.509Z,73.07
2018-03-02T05:04:37.992Z,73.52
2018-03-02T05:07:09.858Z,78.20
2018-03-02T05:09:45.829Z,75.04
2018-03-02T05:12:16.952Z,73.19
2018-03-02T05:14:58.579Z,73.62
2018-03-02T05:17:31.538Z,73.35
2018-03-02T05:20:04.040Z,75.66
2018-03-02T05:22:35.778Z,71.63
2018-03-02T05:25:07.670Z,73.79
2018-03-02T05:27:39.348Z,76.45
2018-03-02T05:30:10.684Z,75.82
2018-03-02T05:32:42.648Z,74.66
2018-03-02T05:35:14.124Z,75.40
2018-03-02T05:37:45.892Z,75.88
2018-03-02T05:40:17.751Z,74.65
2018-03-02T05:42:49.576Z,76.31
2018-03-02T05:45:21.346Z,76.50
2018-03-02T05:47:53.176Z,78.37
2018-03-02T05:50:24.860Z,77.91
2018-03-02T05:52:56.502Z,77.29
2018-03-02T05:55:28.465Z,75.91
2018-03-02T05:58:02.382Z,76.59
2018-03-02T06:00:34.588Z,77.98
2018-03-02T06:03:05.973Z,77.42
2018-03-02T06:05:37.023Z,78.51
2018-03-02T06:08:08.992Z,80.29
2018-03-02T06:10:40.048Z,80.35
2018-03-02T06:13:11.278Z,78.90
2018-03-02T06:15:42.708Z,77.28
2018-03-02T06:18:13.875Z,79.80
2018-03-02T06:20:45.016Z,79.74
2018-03-02T06:23:16.491Z,79.70
2018-03-02T06:25:47.545Z,80.30
2018-03-02T06:28:18.748Z,81.08
2018-03-02T06:30:50.249Z,79.02
2018-03-02T06:33:21.813Z,77.78
2018-03-02T06:35:53.856Z,79.29
2018-03-02T06:38:24.908Z,78.74
2018-03-02T06:40:55.975Z,77.10
2018-03-02T06:43:27.427Z,77.20
2018-03-02T06:46:00.193Z,77.00
2018-03-02T06:48:31.914Z,79.27
2018-03-02T06:51:04.588Z,76.13
2018-03-02T06:53:35.993Z,78.28
2018-03-02T06:56:07.154Z,78.52
2018-03-02T06:58:38.844Z,78.45
2018-03-02T07:01:10.922Z,79.78
2018-03-02T07:03:42.849Z,77.14
2018-03-02T07:06:14.969Z,79.24
2018-03-02T07:08:47.096Z,80.11
2018-03-02T07:11:18.210Z,79.78
2018-03-02T07:13:49.737Z,78.49
2018-03-02T07:16:21.065Z,78.19
2018-03-02T07:18:52.395Z,79.51
2018-03-02T07:21:24.037Z,79.33
2018-03-02T07:23:55.822Z,79.91
2018-03-02T07:26:27.297Z,79.17
2018-03-02T07:28:59.106Z,78.98
2018-03-02T07:31:30.978Z,80.18
2018-03-02T07:34:03.668Z,78.91
2018-03-02T07:36:36.112Z,78.33
2018-03-02T07:39:08.108Z,78.42
2018-03-02T07:41:39.817Z,78.40
2018-03-02T07:44:11.631Z,79.14
2018-03-02T07:46:43.046Z,77.65
2018-03-02T07:49:15.102Z,79.04
2018-03-02T07:51:47.075Z,79.74
2018-03-02T07:54:19.281Z,78.95
2018-03-02T07:56:50.928Z,78.95
2018-03-02T07:59:23.092Z,78.29
2018-03-02T08:01:55.098Z,78.64
2018-03-02T08:04:26.307Z,78.80
2018-03-02T08:06:58.103Z,77.84
2018-03-02T08:09:29.857Z,77.69
2018-03-02T08:12:02.337Z,76.61
2018-03-02T08:14:34.330Z,77.48
2018-03-02T08:17:05.949Z,78.04
2018-03-02T08:19:38.035Z,75.84
2018-03-02T08:22:10.064Z,76.88
2018-03-02T08:24:41.142Z,76.13
2018-03-02T08:27:12.584Z,75.51
2018-03-02T08:29:43.801Z,75.95
2018-03-02T08:32:15.004Z,76.20
2018-03-02T08:34:46.333Z,77.13
2018-03-02T08:37:17.984Z,74.08
2018-03-02T08:39:49.293Z,73.53
2018-03-02T08:42:20.896Z,75.20
2018-03-02T08:44:52.308Z,74.92
2018-03-02T08:47:24.103Z,73.33
2018-03-02T08:49:55.431Z,75.15
2018-03-02T08:52:26.724Z,72.76
2018-03-02T08:54:58.728Z,73.66
2018-03-02T08:57:29.868Z,72.72
2018-03-02T09:00:01.200Z,72.21
2018-03-02T09:02:32.799Z,71.77
2018-03-02T09:05:04.634Z,71.54
2018-03-02T09:07:36.180Z,71.38
2018-03-02T09:10:07.554Z,71.16
2018-03-02T09:12:38.816Z,71.63
2018-03-02T09:15:10.681Z,71.54
2018-03-02T09:17:41.810Z,71.94
2018-03-02T09:20:12.924Z,70.32
2018-03-02T09:22:44.312Z,71.94
2018-03-02T09:25:15.474Z,70.34
2018-03-02T09:27:47.049Z,69.38
2018-03-02T09:30:18.124Z,70.12
2018-03-02T09:32:49.590Z,69.35
2018-03-02T09:35:21.237Z,69.44
2018-03-02T09:37:52.509Z,70.24
2018-03-02T09:40:24.020Z,68.73
2018-03-02T09:42:55.783Z,68.09
2018-03-02T09:45:27.645Z,69.82
2018-03-02T09:47:59.064Z,69.82
2018-03-02T09:50:30.508Z,68.29
2018-03-02T09:53:04.126Z,67.21
2018-03-02T09:55:35.237Z,67.03
2018-03-02T09:58:07.353Z,66.38
2018-03-02T10:00:38.841Z,64.68
2018-03-02T10:03:10.576Z,64.24
2018-03-02T10:05:41.918Z,64.47
2018-03-02T10:08:12.993Z,64.52
2018-03-02T10:10:44.134Z,63.77
2018-03-02T10:13:15.476Z,63.80
2018-03-02T10:15:46.632Z,64.17
2018-03-02T10:18:17.932Z,63.66
2018-03-02T10:20:49.325Z,63.00
2018-03-02T10:23:20.437Z,63.75
2018-03-02T10:25:51.637Z,62.74
2018-03-02T10:28:23.717Z,62.05
2018-03-02T10:30:55.225Z,62.79
2018-03-02T10:33:26.593Z,63.48
2018-03-02T10:35:58.067Z,62.61
2018-03-02T10:38:29.144Z,62.13
2018-03-02T10:41:02.092Z,61.95
2018-03-02T10:43:33.175Z,61.60
2018-03-02T10:46:04.300Z,60.92
2018-03-02T10:48:35.889Z,60.61
2018-03-02T10:51:07.317Z,60.77
2018-03-02T10:53:38.406Z,60.55
2018-03-02T10:56:09.818Z,60.31
2018-03-02T10:58:41.197Z,60.89
2018-03-02T11:01:13.440Z,60.47
2018-03-02T11:03:49.018Z,58.98
2018-03-02T11:06:20.893Z,57.86
2018-03-02T11:08:51.989Z,57.68
2018-03-02T11:11:23.067Z,57.56
2018-03-02T11:13:54.217Z,57.21
2018-03-02T11:16:25.629Z,59.86
2018-03-02T11:18:56.760Z,59.80
2018-03-02T11:21:28.326Z,58.84
2018-03-02T11:23:59.461Z,58.09
2018-03-02T11:26:31.518Z,58.08
2018-03-02T11:29:03.549Z,58.87
2018-03-02T11:31:34.960Z,58.20
2018-03-02T11:34:06.056Z,56.96
2018-03-02T11:36:37.445Z,56.48
2018-03-02T11:39:08.270Z,56.28
2018-03-02T11:41:39.152Z,55.83
2018-03-02T11:44:11.106Z,56.70
2018-03-02T11:46:42.179Z,57.34
2018-03-02T11:49:13.237Z,57.21
2018-03-02T11:51:47.057Z,57.35
2018-03-02T11:54:18.532Z,56.34
2018-03-02T11:56:49.603Z,56.60
2018-03-02T11:59:23.505Z,56.56
2018-03-02T12:01:54.329Z,57.57
2018-03-02T12:04:26.320Z,57.36
2018-03-02T12:06:57.504Z,56.93
2018-03-02T12:09:28.864Z,56.83
2018-03-02T12:12:00.580Z,57.60
2018-03-02T12:14:32.116Z,58.30
2018-03-02T12:17:04.265Z,57.94
2018-03-02T12:19:36.233Z,57.80
2018-03-02T12:22:07.752Z,58.38
2018-03-02T12:24:38.812Z,57.91
2018-03-02T12:27:10.336Z,57.84
2018-03-02T12:29:42.501Z,57.42
2018-03-02T12:32:13.653Z,57.26
2018-03-02T12:34:44.776Z,57.15
2018-03-02T12:37:17.712Z,56.40
2018-03-02T12:39:48.820Z,56.18
2018-03-02T12:42:20.744Z,56.65
2018-03-02T12:44:52.171Z,56.14
2018-03-02T12:47:25.099Z,55.91
2018-03-02T12:49:55.921Z,54.57
2018-03-02T12:52:27.052Z,53.96
2018-03-02T12:54:57.887Z,53.89
2018-03-02T12:57:28.767Z,54.41
2018-03-02T13:00:00.901Z,53.30
2018-03-02T13:02:31.837Z,52.70
2018-03-02T13:05:03.032Z,53.31
2018-03-02T13:07:33.928Z,53.83
2018-03-02T13:10:05.102Z,52.76
2018-03-02T13:12:36.217Z,52.55
2018-03-02T13:15:07.089Z,52.61
2018-03-02T13:17:37.855Z,52.47
2018-03-02T13:20:08.825Z,52.96
2018-03-02T13:22:42.448Z,52.48
2018-03-02T13:25:13.324Z,52.91
2018-03-02T13:27:54.238Z,52.03
2018-03-02T13:30:26.170Z,53.65
2018-03-02T13:33:05.292Z,52.84
2018-03-02T13:35:36.538Z,53.20
2018-03-02T13:38:07.473Z,53.60
2018-03-02T13:42:52.196Z,54.03
2018-03-02T13:45:23.010Z,53.90
2018-03-02T13:48:02.125Z,54.52
2018-03-02T13:50:33.344Z,53.87
2018-03-02T13:53:04.157Z,54.25
2018-03-02T13:55:34.917Z,54.35
2018-03-02T13:58:06.933Z,53.89
2018-03-02T14:00:37.809Z,54.64
2018-03-02T14:05:15.013Z,54.54
2018-03-02T14:07:45.842Z,54.98
2018-03-02T14:10:16.712Z,54.87
2018-03-02T14:12:47.765Z,54.64
2018-03-02T14:15:18.569Z,54.54
2018-03-02T14:17:49.677Z,54.58
2018-03-02T14:20:20.776Z,54.38
2018-03-02T14:22:51.628Z,54.77
2018-03-02T14:25:22.906Z,54.94
2018-03-02T14:27:53.989Z,54.71
2018-03-02T14:30:24.809Z,54.94
2018-03-02T14:32:58.927Z,55.45
2018-03-02T14:35:30.214Z,55.56
2018-03-02T14:38:01.420Z,55.05
2018-03-02T14:40:32.502Z,55.47
2018-03-02T14:43:03.268Z,56.35
2018-03-02T14:45:34.061Z,55.33
2018-03-02T14:48:04.928Z,55.30
2018-03-02T14:50:35.982Z,55.07
2018-03-02T14:53:07.092Z,55.44
2018-03-02T14:55:37.869Z,54.90
2018-03-02T14:58:08.975Z,55.12
2018-03-02T15:00:41.209Z,55.32
2018-03-02T15:03:12.374Z,55.23
2018-03-02T15:05:43.200Z,55.06
2018-03-02T15:08:13.941Z,55.07
2018-03-02T15:10:45.130Z,54.97
2018-03-02T15:13:16.946Z,55.30
2018-03-02T15:15:47.801Z,55.60
2018-03-02T15:18:20.320Z,55.24
2018-03-02T15:20:51.069Z,55.11
2018-03-02T15:23:23.001Z,54.81
2018-03-02T15:25:54.367Z,55.10
2018-03-02T15:28:25.448Z,54.82
2018-03-02T15:30:57.564Z,55.80
2018-03-02T15:33:28.377Z,55.46
2018-03-02T15:36:00.885Z,55.90
2018-03-02T15:38:31.960Z,55.63
2018-03-02T15:41:02.848Z,55.06
2018-03-02T15:43:34.159Z,55.08
2018-03-02T15:46:05.721Z,55.11
2018-03-02T15:48:36.933Z,54.95
2018-03-02T15:51:08.067Z,55.15
2018-03-02T15:53:38.804Z,54.87
2018-03-02T15:56:10.496Z,55.42
2018-03-02T15:58:41.682Z,54.83
2018-03-02T16:01:12.480Z,54.84
2018-03-02T16:03:43.293Z,55.49
2018-03-02T16:06:14.389Z,55.63
2018-03-02T16:08:45.249Z,55.76
2018-03-02T16:11:16.119Z,55.49
2018-03-02T16:13:48.952Z,56.01
2018-03-02T16:16:20.120Z,55.95
2018-03-02T16:18:50.934Z,56.37
2018-03-02T16:21:22.145Z,56.12
2018-03-02T16:23:52.981Z,56.33
2018-03-02T16:26:24.075Z,56.04
2018-03-02T16:28:55.200Z,56.34
2018-03-02T16:31:26.660Z,56.54
2018-03-02T16:33:58.002Z,56.56
2018-03-02T16:36:30.152Z,56.04
2018-03-02T16:39:02.467Z,55.53
2018-03-02T16:41:33.548Z,56.65
2018-03-02T16:44:05.064Z,56.75
2018-03-02T16:46:36.184Z,56.54
2018-03-02T16:49:07.269Z,56.29
2018-03-02T16:51:38.813Z,56.52
2018-03-02T16:54:10.733Z,56.34
2018-03-02T16:56:42.280Z,56.48
2018-03-02T16:59:13.356Z,56.56
2018-03-02T17:01:44.497Z,57.85
2018-03-02T17:04:20.429Z,57.12
2018-03-02T17:06:51.556Z,57.52
2018-03-02T17:09:22.933Z,58.42
2018-03-02T17:11:54.062Z,58.94
2018-03-02T17:14:25.144Z,59.00
2018-03-02T17:17:01.751Z,59.40
2018-03-02T17:19:32.975Z,59.09
2018-03-02T17:22:05.147Z,59.74
2018-03-02T17:24:36.260Z,58.55
2018-03-02T17:27:07.428Z,59.39
2018-03-02T17:29:38.840Z,58.07
2018-03-02T17:32:09.972Z,58.96
2018-03-02T17:34:41.120Z,59.42
2018-03-02T17:37:38.564Z,59.94
2018-03-02T17:40:11.925Z,59.43
2018-03-02T17:42:43.138Z,59.42
2018-03-02T17:45:14.587Z,58.75
2018-03-02T17:47:45.720Z,57.99
2018-03-02T17:50:17.945Z,58.10
2018-03-02T17:52:49.098Z,58.75
2018-03-02T17:55:20.273Z,58.75
2018-03-02T17:57:51.995Z,59.67
2018-03-02T18:00:23.110Z,59.03
2018-03-02T18:02:55.429Z,59.24
2018-03-02T18:05:26.848Z,58.91
2018-03-02T18:07:59.652Z,60.11
2018-03-02T18:10:32.656Z,60.41
2018-03-02T18:13:05.010Z,60.30
2018-03-02T18:15:36.141Z,60.54
2018-03-02T18:18:07.557Z,60.03
2018-03-02T18:20:38.792Z,59.59
2018-03-02T18:23:10.217Z,60.46
2018-03-02T18:25:41.364Z,60.49
2018-03-02T18:28:12.504Z,60.55
2018-03-02T18:30:43.931Z,61.05
2018-03-02T18:33:15.069Z,60.30
2018-03-02T18:35:54.967Z,60.41
2018-03-02T18:38:26.428Z,60.17
2018-03-02T18:40:58.422Z,60.58
2018-03-02T18:43:29.593Z,61.65
2018-03-02T18:46:01.164Z,60.61
2018-03-02T18:48:32.244Z,61.65
2018-03-02T18:51:03.688Z,61.40
2018-03-02T18:53:34.789Z,61.15
2018-03-02T18:56:06.360Z,61.20
2018-03-02T18:58:37.892Z,61.27
2018-03-02T19:01:09.498Z,60.68
2018-03-02T19:03:40.577Z,60.56
2018-03-02T19:06:12.432Z,61.16
2018-03-02T19:08:43.581Z,61.08
2018-03-02T19:11:15.083Z,62.15
2018-03-02T19:13:46.640Z,61.99
2018-03-02T19:16:17.700Z,63.19
2018-03-02T19:18:49.288Z,63.27
2018-03-02T19:21:20.565Z,62.99
2018-03-02T19:23:51.661Z,64.80
2018-03-02T19:26:23.089Z,64.34
2018-03-02T19:28:54.209Z,63.96
2018-03-02T19:31:25.356Z,64.04
2018-03-02T19:33:56.448Z,64.07
2018-03-02T19:36:27.966Z,63.50
2018-03-02T19:38:59.389Z,62.99
2018-03-02T19:41:30.491Z,63.55
2018-03-02T19:44:02.877Z,63.75
2018-03-02T19:46:34.000Z,61.66
2018-03-02T19:49:06.184Z,62.02
2018-03-02T19:51:38.033Z,61.64
2018-03-02T19:54:09.160Z,60.19
2018-03-02T19:56:40.313Z,60.66
2018-03-02T19:59:11.516Z,60.20
2018-03-02T20:01:42.693Z,60.03
2018-03-02T20:04:18.668Z,59.42
2018-03-02T20:06:49.841Z,60.48
2018-03-02T20:09:21.170Z,59.23
2018-03-02T20:11:59.544Z,59.23
2018-03-02T20:14:31.244Z,59.64
2018-03-02T20:17:03.641Z,59.19
2018-03-02T20:19:34.837Z,59.52
2018-03-02T20:22:06.236Z,58.64
2018-03-02T20:24:37.392Z,59.41
2018-03-02T20:27:08.495Z,59.90
2018-03-02T20:29:39.973Z,59.34
2018-03-02T20:32:11.089Z,59.50
2018-03-02T20:34:42.475Z,59.33
2018-03-02T20:37:14.034Z,59.29
2018-03-02T20:39:45.620Z,58.88
2018-03-02T20:42:17.696Z,58.85
2018-03-02T20:44:48.869Z,59.26
2018-03-02T20:47:21.871Z,59.39
2018-03-02T20:49:56.228Z,59.42
2018-03-02T20:52:27.405Z,59.22
2018-03-02T20:54:59.428Z,60.39
2018-03-02T20:57:30.586Z,62.98
2018-03-02T21:00:02.598Z,62.76
2018-03-02T21:02:34.124Z,63.31
2018-03-02T21:05:05.434Z,63.17
2018-03-02T21:07:36.839Z,63.55
2018-03-02T21:10:09.008Z,63.73
2018-03-02T21:12:40.193Z,62.33
2018-03-02T21:15:12.165Z,61.94
2018-03-02T21:17:43.890Z,61.88
2018-03-02T21:20:25.678Z,61.04
2018-03-02T21:22:57.158Z,60.57
2018-03-02T21:25:28.349Z,59.93
2018-03-02T21:27:59.508Z,59.63
2018-03-02T21:30:31.061Z,60.57
2018-03-02T21:33:04.921Z,60.93
2018-03-02T21:35:36.072Z,61.29
2018-03-02T21:38:07.613Z,61.24
2018-03-02T21:40:38.818Z,61.31
2018-03-02T21:43:10.436Z,61.27
2018-03-02T21:45:45.507Z,61.10
2018-03-02T21:48:18.044Z,61.02
2018-03-02T21:50:50.621Z,61.02
2018-03-02T21:53:21.716Z,61.40
2018-03-02T21:55:53.177Z,61.58
2018-03-02T21:58:24.292Z,61.43
2018-03-02T22:00:55.780Z,62.10
2018-03-02T22:03:27.880Z,62.00
2018-03-02T22:05:59.025Z,62.03
2018-03-02T22:08:30.180Z,63.09
2018-03-02T22:11:03.317Z,62.82
2018-03-02T22:13:34.377Z,62.37
2018-03-02T22:16:05.796Z,62.82
2018-03-02T22:18:36.869Z,62.99
2018-03-02T22:21:07.933Z,62.95
2018-03-02T22:23:39.565Z,62.77
2018-03-02T22:26:11.981Z,63.22
2018-03-02T22:28:43.412Z,63.29
2018-03-02T22:31:14.473Z,63.01
2018-03-02T22:33:45.640Z,62.39
2018-03-02T22:36:17.026Z,63.32
2018-03-02T22:38:48.576Z,63.24
2018-03-02T22:41:19.866Z,63.19
2018-03-02T22:43:51.272Z,62.30
2018-03-02T22:46:22.400Z,63.41
2018-03-02T22:48:54.046Z,63.15
2018-03-02T22:51:25.477Z,62.93
2018-03-02T22:53:57.476Z,63.24
2018-03-02T22:56:29.408Z,63.13
2018-03-02T22:59:01.318Z,63.02
2018-03-02T23:01:32.496Z,63.29
2018-03-02T23:04:05.159Z,63.64
2018-03-02T23:06:36.952Z,64.04
2018-03-02T23:09:09.311Z,63.93
2018-03-02T23:11:40.384Z,63.84
2018-03-02T23:14:11.496Z,63.92
2018-03-02T23:16:42.995Z,63.84
2018-03-02T23:19:14.762Z,63.54
2018-03-02T23:21:47.536Z,63.46
2018-03-02T23:24:18.854Z,63.40
2018-03-02T23:26:51.103Z,63.17
2018-03-02T23:29:22.248Z,63.87
2018-03-02T23:31:53.615Z,63.84
2018-03-02T23:34:24.648Z,64.06
2018-03-02T23:36:56.992Z,63.98
2018-03-02T23:39:28.450Z,65.26
2018-03-02T23:42:03.293Z,65.83
2018-03-02T23:44:34.924Z,67.98
2018-03-02T23:47:06.235Z,67.72
2018-03-02T23:49:38.212Z,67.44
2018-03-02T23:52:09.604Z,68.95
2018-03-02T23:54:40.729Z,69.78
2018-03-02T23:57:12.864Z,69.20
2018-03-02T23:59:44.010Z,69.41
